Time;durP1;ratioP1;P1;durP2;ratioP2;P2;SDS_P1;SDS_P2;PMS_P1;PMS_P2;Temp;Humidity;BMP_temperature;BMP_pressure;BME280_temperature;BME280_humidity;BME280_pressure;Samples;Min_cycle;Max_cycle;Signal;HPM_P1;HPM_P2
2022/06/30 00:01:34;;;;;;;9.40;8.27;;;;;;;;;;5002112;28;20186;-67
2022/06/30 00:04:00;;;;;;;11.38;8.38;;;;;;;;;;5004977;28;20196;-67
2022/06/30 00:06:25;;;;;;;8.10;7.30;;;;;;;;;;5006162;28;20228;-67
2022/06/30 00:08:52;;;;;;;8.77;7.43;;;;;;;;;;5003674;28;20253;-67
2022/06/30 00:11:18;;;;;;;8.15;7.30;;;;;;;;;;5002818;28;20195;-67
2022/06/30 00:13:43;;;;;;;7.68;6.60;;;;;;;;;;5004330;28;20186;-67
2022/06/30 00:16:09;;;;;;;7.45;6.47;;;;;;;;;;5010219;28;20224;-67
2022/06/30 00:18:35;;;;;;;8.95;7.03;;;;;;;;;;5021362;28;20186;-67
2022/06/30 00:21:00;;;;;;;8.70;7.43;;;;;;;;;;5012066;28;20175;-67
2022/06/30 00:23:26;;;;;;;7.85;7.00;;;;;;;;;;5010593;28;20193;-67
2022/06/30 00:25:52;;;;;;;9.57;7.20;;;;;;;;;;4999470;28;20215;-67
2022/06/30 00:28:19;;;;;;;8.25;6.82;;;;;;;;;;5003762;28;20709;-67
2022/06/30 00:30:49;;;;;;;8.13;6.70;;;;;;;;;;5008699;28;20303;-67
2022/06/30 00:33:15;;;;;;;7.55;6.63;;;;;;;;;;5008531;28;20568;-67
2022/06/30 00:35:41;;;;;;;7.25;6.45;;;;;;;;;;5014228;28;20183;-67
2022/06/30 00:38:06;;;;;;;7.45;6.22;;;;;;;;;;5001308;28;20236;-67
2022/06/30 00:40:39;;;;;;;8.30;6.32;;;;;;;;;;5004852;28;20939;-67
2022/06/30 00:43:05;;;;;;;7.70;6.18;;;;;;;;;;5007881;28;20187;-67
2022/06/30 00:45:30;;;;;;;11.43;5.95;;;;;;;;;;4999400;28;20384;-67
2022/06/30 00:47:57;;;;;;;6.93;6.10;;;;;;;;;;5010333;28;20175;-67
2022/06/30 00:50:22;;;;;;;6.85;6.15;;;;;;;;;;5012991;28;20198;-67
2022/06/30 00:52:51;;;;;;;6.43;5.72;;;;;;;;;;5009127;28;20202;-67
2022/06/30 00:55:18;;;;;;;7.50;5.97;;;;;;;;;;5008306;28;20183;-68
2022/06/30 00:57:44;;;;;;;7.82;5.82;;;;;;;;;;5027697;28;20191;-67
2022/06/30 01:00:11;;;;;;;8.65;5.68;;;;;;;;;;4995606;28;20218;-67
2022/06/30 01:02:37;;;;;;;6.72;6.03;;;;;;;;;;5024551;28;20270;-67
2022/06/30 01:05:03;;;;;;;6.85;6.00;;;;;;;;;;5014345;28;20595;-67
2022/06/30 01:07:29;;;;;;;7.75;5.75;;;;;;;;;;5007247;28;20187;-67
2022/06/30 01:12:43;;;;;;;9.35;5.88;;;;;;;;;;5015406;28;20213;-67
2022/06/30 01:15:10;;;;;;;7.28;6.57;;;;;;;;;;5007369;28;20646;-67
2022/06/30 01:17:36;;;;;;;7.80;6.10;;;;;;;;;;5010196;28;20193;-67
2022/06/30 01:20:02;;;;;;;6.25;5.65;;;;;;;;;;5006718;28;20175;-67
2022/06/30 01:22:27;;;;;;;7.05;6.10;;;;;;;;;;5019788;28;20276;-67
2022/06/30 01:24:53;;;;;;;6.40;5.80;;;;;;;;;;5004020;28;20223;-66
2022/06/30 01:27:19;;;;;;;8.77;6.15;;;;;;;;;;4999039;28;20193;-67
2022/06/30 01:29:45;;;;;;;6.88;5.95;;;;;;;;;;5009221;28;20648;-67
2022/06/30 01:32:11;;;;;;;8.55;6.25;;;;;;;;;;5018524;28;20805;-67
2022/06/30 01:34:36;;;;;;;7.43;5.97;;;;;;;;;;5013286;28;20186;-67
2022/06/30 01:37:02;;;;;;;8.68;5.97;;;;;;;;;;5005382;28;20266;-67
2022/06/30 01:39:27;;;;;;;8.35;6.22;;;;;;;;;;4995844;28;20226;-67
2022/06/30 01:41:53;;;;;;;8.27;6.75;;;;;;;;;;5001694;28;20713;-67
2022/06/30 01:44:18;;;;;;;8.65;6.90;;;;;;;;;;5001188;28;20183;-66
2022/06/30 01:46:50;;;;;;;7.80;6.88;;;;;;;;;;5013467;28;20561;-66
2022/06/30 01:49:16;;;;;;;8.27;6.28;;;;;;;;;;5012594;28;20197;-67
2022/06/30 01:51:42;;;;;;;10.48;5.88;;;;;;;;;;4997053;28;20656;-67
2022/06/30 01:54:08;;;;;;;7.10;6.20;;;;;;;;;;5001912;28;20191;-67
2022/06/30 01:56:34;;;;;;;8.15;6.13;;;;;;;;;;5000236;28;20542;-67
2022/06/30 01:59:00;;;;;;;7.82;5.70;;;;;;;;;;5006053;28;20183;-67
2022/06/30 02:01:25;;;;;;;8.98;6.68;;;;;;;;;;4998504;28;20225;-67
2022/06/30 02:03:51;;;;;;;7.90;6.82;;;;;;;;;;5006391;28;20190;-67
2022/06/30 02:06:16;;;;;;;9.23;6.80;;;;;;;;;;5013013;28;20186;-67
2022/06/30 02:08:42;;;;;;;10.18;6.88;;;;;;;;;;5008697;28;20654;-68
2022/06/30 02:11:07;;;;;;;8.38;6.95;;;;;;;;;;5010745;28;20226;-66
2022/06/30 02:13:32;;;;;;;10.90;7.05;;;;;;;;;;5009869;28;20232;-67
2022/06/30 02:15:58;;;;;;;9.15;7.05;;;;;;;;;;4994762;28;20183;-67
2022/06/30 02:18:23;;;;;;;9.30;7.03;;;;;;;;;;5003828;28;20178;-66
2022/06/30 02:20:48;;;;;;;9.10;7.22;;;;;;;;;;5008036;28;20178;-67
2022/06/30 02:23:14;;;;;;;7.72;7.03;;;;;;;;;;5007451;28;20274;-67
2022/06/30 02:25:39;;;;;;;11.45;7.43;;;;;;;;;;5007903;28;20191;-66
2022/06/30 02:28:05;;;;;;;11.52;7.55;;;;;;;;;;5009673;28;20193;-66
2022/06/30 02:30:31;;;;;;;10.73;7.32;;;;;;;;;;5009002;28;20595;-67
2022/06/30 02:32:56;;;;;;;8.38;6.50;;;;;;;;;;5007132;28;20233;-67
2022/06/30 02:35:22;;;;;;;9.45;7.60;;;;;;;;;;4998663;28;20183;-67
2022/06/30 02:37:48;;;;;;;9.60;7.55;;;;;;;;;;5020903;28;20229;-67
2022/06/30 02:40:13;;;;;;;9.65;7.40;;;;;;;;;;5003369;28;20286;-67
2022/06/30 02:42:39;;;;;;;9.75;7.50;;;;;;;;;;5008488;28;20197;-67
2022/06/30 02:45:05;;;;;;;10.60;7.43;;;;;;;;;;5007529;28;20615;-66
2022/06/30 02:47:35;;;;;;;11.02;8.18;;;;;;;;;;5009133;28;20187;-67
2022/06/30 02:50:03;;;;;;;11.38;7.70;;;;;;;;;;5008894;28;20272;-67
2022/06/30 02:52:30;;;;;;;8.95;8.05;;;;;;;;;;5010647;28;20220;-67
2022/06/30 02:54:56;;;;;;;9.23;8.23;;;;;;;;;;5004154;28;20719;-67
2022/06/30 02:57:21;;;;;;;10.25;8.13;;;;;;;;;;5005749;28;20273;-67
2022/06/30 02:59:46;;;;;;;9.57;7.85;;;;;;;;;;5005700;28;20265;-67
2022/06/30 03:02:12;;;;;;;9.45;7.47;;;;;;;;;;5005925;28;20269;-67
2022/06/30 03:04:37;;;;;;;9.73;7.68;;;;;;;;;;5004113;28;20213;-67
2022/06/30 03:07:02;;;;;;;9.88;7.57;;;;;;;;;;5008335;28;20232;-67
2022/06/30 03:09:28;;;;;;;11.93;7.93;;;;;;;;;;5006810;28;20337;-66
2022/06/30 03:11:53;;;;;;;9.32;8.40;;;;;;;;;;5005173;28;20656;-66
2022/06/30 03:14:19;;;;;;;8.85;7.25;;;;;;;;;;5006467;28;20233;-66
2022/06/30 03:16:44;;;;;;;8.68;7.78;;;;;;;;;;5006558;28;20189;-66
2022/06/30 03:19:09;;;;;;;10.40;8.60;;;;;;;;;;5005446;28;20539;-66
2022/06/30 03:21:35;;;;;;;10.77;8.07;;;;;;;;;;5006416;28;20210;-67
2022/06/30 03:24:00;;;;;;;10.77;8.23;;;;;;;;;;5005899;28;20190;-67
2022/06/30 03:26:25;;;;;;;9.15;8.25;;;;;;;;;;5006562;28;20237;-66
2022/06/30 03:28:51;;;;;;;9.07;7.28;;;;;;;;;;5009981;28;20242;-66
2022/06/30 03:31:16;;;;;;;11.52;8.15;;;;;;;;;;5005879;28;20302;-67
2022/06/30 03:33:42;;;;;;;9.10;8.20;;;;;;;;;;5006545;28;20269;-67
2022/06/30 03:36:07;;;;;;;11.98;8.45;;;;;;;;;;5005849;28;20186;-67
2022/06/30 03:38:33;;;;;;;10.40;7.75;;;;;;;;;;5008875;28;20178;-67
2022/06/30 03:40:58;;;;;;;10.93;8.70;;;;;;;;;;5010069;28;20203;-67
2022/06/30 03:43:23;;;;;;;10.88;8.65;;;;;;;;;;5010611;28;20266;-67
2022/06/30 03:45:49;;;;;;;10.88;9.05;;;;;;;;;;5010596;28;20187;-67
2022/06/30 03:48:14;;;;;;;11.60;8.82;;;;;;;;;;5004991;28;20564;-67
2022/06/30 03:50:39;;;;;;;12.70;8.32;;;;;;;;;;5010634;28;20706;-67
2022/06/30 03:53:05;;;;;;;9.38;8.38;;;;;;;;;;5011996;28;20635;-67
2022/06/30 03:55:30;;;;;;;10.15;8.80;;;;;;;;;;5007668;28;20194;-67
2022/06/30 03:57:56;;;;;;;9.10;8.20;;;;;;;;;;5004674;28;20639;-66
2022/06/30 04:00:23;;;;;;;10.98;8.70;;;;;;;;;;5012103;28;20186;-67
2022/06/30 04:02:48;;;;;;;8.93;7.88;;;;;;;;;;5010358;28;20191;-67
2022/06/30 04:05:13;;;;;;;13.77;8.20;;;;;;;;;;5009522;28;20189;-67
2022/06/30 04:07:40;;;;;;;10.00;8.75;;;;;;;;;;5001646;28;20195;-67
2022/06/30 04:10:06;;;;;;;10.27;8.65;;;;;;;;;;5011197;28;20550;-66
2022/06/30 04:12:32;;;;;;;9.63;8.63;;;;;;;;;;5011838;28;20659;-67
2022/06/30 04:14:57;;;;;;;15.00;8.80;;;;;;;;;;5010701;28;20221;-66
2022/06/30 04:17:22;;;;;;;10.60;9.10;;;;;;;;;;5013065;28;20701;-67
2022/06/30 04:19:48;;;;;;;12.05;8.95;;;;;;;;;;5013321;28;20182;-66
2022/06/30 04:22:13;;;;;;;10.65;8.95;;;;;;;;;;5020566;28;20205;-67
2022/06/30 04:24:38;;;;;;;10.00;8.93;;;;;;;;;;5014384;28;20309;-67
2022/06/30 04:27:04;;;;;;;10.57;9.27;;;;;;;;;;5006254;28;20214;-67
2022/06/30 04:29:29;;;;;;;9.60;8.43;;;;;;;;;;5009825;28;20262;-67
2022/06/30 04:34:39;;;;;;;9.05;8.18;;;;;;;;;;5004767;28;20260;-67
2022/06/30 04:37:04;;;;;;;9.35;8.35;;;;;;;;;;5001721;28;20638;-67
2022/06/30 04:39:29;;;;;;;9.82;7.75;;;;;;;;;;5014609;28;20494;-68
2022/06/30 04:41:55;;;;;;;8.05;7.18;;;;;;;;;;5015870;28;20191;-67
2022/06/30 04:44:20;;;;;;;11.10;6.68;;;;;;;;;;5006714;28;20584;-68
2022/06/30 04:46:45;;;;;;;9.82;8.13;;;;;;;;;;5009729;28;20557;-67
2022/06/30 04:49:11;;;;;;;9.73;7.20;;;;;;;;;;5005647;28;20238;-66
2022/06/30 04:51:36;;;;;;;8.57;7.30;;;;;;;;;;5006459;28;20215;-66
2022/06/30 04:54:01;;;;;;;9.50;7.25;;;;;;;;;;5011234;28;20189;-66
2022/06/30 04:56:26;;;;;;;8.20;7.40;;;;;;;;;;5008198;28;20226;-67
2022/06/30 04:58:52;;;;;;;8.35;7.28;;;;;;;;;;5011125;28;20186;-67
2022/06/30 05:01:17;;;;;;;7.93;7.22;;;;;;;;;;5009939;28;20191;-67
2022/06/30 05:03:43;;;;;;;8.68;7.43;;;;;;;;;;5008340;28;20183;-67
2022/06/30 05:06:08;;;;;;;11.13;8.25;;;;;;;;;;5006334;28;20230;-67
2022/06/30 05:08:34;;;;;;;10.63;8.10;;;;;;;;;;5007919;28;20583;-67
2022/06/30 05:11:00;;;;;;;9.23;8.27;;;;;;;;;;5009283;28;20210;-67
2022/06/30 05:13:26;;;;;;;10.95;8.85;;;;;;;;;;5007800;28;20183;-67
2022/06/30 05:15:52;;;;;;;9.23;8.30;;;;;;;;;;5007258;28;20221;-68
2022/06/30 05:18:18;;;;;;;9.40;8.40;;;;;;;;;;5000189;28;20457;-68
2022/06/30 05:20:43;;;;;;;11.65;8.82;;;;;;;;;;5020022;28;20187;-66
2022/06/30 05:23:09;;;;;;;9.13;7.57;;;;;;;;;;5007789;28;20329;-66
2022/06/30 05:28:21;;;;;;;9.68;8.48;;;;;;;;;;5007162;28;20253;-67
2022/06/30 05:30:49;;;;;;;9.45;8.40;;;;;;;;;;5006965;28;20290;-68
2022/06/30 05:33:19;;;;;;;9.30;8.35;;;;;;;;;;5007058;28;20199;-66
2022/06/30 05:35:44;;;;;;;9.65;8.73;;;;;;;;;;5002343;28;20190;-67
2022/06/30 05:38:10;;;;;;;10.15;9.15;;;;;;;;;;5006524;28;20256;-66
2022/06/30 05:40:35;;;;;;;10.73;9.50;;;;;;;;;;5005334;28;20183;-67
2022/06/30 05:43:00;;;;;;;10.55;8.80;;;;;;;;;;5006303;28;20241;-67
2022/06/30 05:45:26;;;;;;;10.13;9.05;;;;;;;;;;4994971;28;20181;-67
2022/06/30 05:47:52;;;;;;;10.65;9.38;;;;;;;;;;5007274;28;20667;-68
2022/06/30 05:50:20;;;;;;;11.48;9.63;;;;;;;;;;5007531;28;20298;-68
2022/06/30 05:52:46;;;;;;;12.25;10.18;;;;;;;;;;5008576;28;20181;-67
2022/06/30 05:55:12;;;;;;;10.63;9.52;;;;;;;;;;5006343;28;20194;-66
2022/06/30 05:57:53;;;;;;;13.48;10.52;;;;;;;;;;4999737;28;20308;-67
2022/06/30 06:00:20;;;;;;;12.13;10.93;;;;;;;;;;5002699;28;20724;-67
2022/06/30 06:02:45;;;;;;;12.23;10.23;;;;;;;;;;5004355;28;20202;-67
2022/06/30 06:05:11;;;;;;;12.23;10.88;;;;;;;;;;5003952;28;20695;-67
2022/06/30 06:07:36;;;;;;;15.07;12.60;;;;;;;;;;5003894;28;20554;-67
2022/06/30 06:10:02;;;;;;;13.98;11.68;;;;;;;;;;5001979;28;20194;-67
2022/06/30 06:12:27;;;;;;;13.70;12.25;;;;;;;;;;5004878;28;20191;-67
2022/06/30 06:14:53;;;;;;;15.15;13.50;;;;;;;;;;5001632;28;20273;-67
2022/06/30 06:17:19;;;;;;;14.85;13.30;;;;;;;;;;5002604;28;20183;-68
2022/06/30 06:19:44;;;;;;;21.52;13.23;;;;;;;;;;5004853;28;20186;-67
2022/06/30 06:22:09;;;;;;;16.02;14.38;;;;;;;;;;5004362;28;20194;-67
2022/06/30 06:24:35;;;;;;;15.63;13.32;;;;;;;;;;5001742;28;20178;-67
2022/06/30 06:27:00;;;;;;;17.77;13.93;;;;;;;;;;5004634;28;20179;-67
2022/06/30 06:29:26;;;;;;;17.70;14.73;;;;;;;;;;5000838;28;20291;-67
2022/06/30 06:31:51;;;;;;;16.75;14.82;;;;;;;;;;5002767;28;20313;-67
2022/06/30 06:34:16;;;;;;;19.10;15.13;;;;;;;;;;4994041;28;20201;-68
2022/06/30 06:36:42;;;;;;;17.17;15.38;;;;;;;;;;5002165;28;20233;-68
2022/06/30 06:39:07;;;;;;;16.90;15.02;;;;;;;;;;5001887;28;20190;-67
2022/06/30 06:41:33;;;;;;;15.40;12.58;;;;;;;;;;4313340;28;10021349;-67
2022/06/30 06:43:58;;;;;;;16.13;14.45;;;;;;;;;;5000205;28;20186;-67
2022/06/30 06:46:27;;;;;;;17.40;15.63;;;;;;;;;;5002408;28;20191;-68
2022/06/30 06:49:00;;;;;;;16.17;14.48;;;;;;;;;;5003614;28;20213;-67
2022/06/30 06:51:26;;;;;;;17.23;15.43;;;;;;;;;;5002247;28;20922;-67
2022/06/30 06:53:51;;;;;;;19.58;14.95;;;;;;;;;;5002432;28;20187;-67
2022/06/30 06:56:17;;;;;;;22.55;15.35;;;;;;;;;;5004480;28;20756;-67
2022/06/30 06:58:43;;;;;;;16.73;14.90;;;;;;;;;;5005011;28;20183;-67
2022/06/30 07:01:08;;;;;;;16.55;14.80;;;;;;;;;;5004506;28;20475;-66
2022/06/30 07:03:34;;;;;;;19.17;15.73;;;;;;;;;;5002293;28;20222;-67
2022/06/30 07:05:59;;;;;;;24.38;16.45;;;;;;;;;;5001405;28;20273;-66
2022/06/30 07:08:24;;;;;;;21.02;15.98;;;;;;;;;;5004788;28;20490;-67
2022/06/30 07:10:50;;;;;;;18.55;16.15;;;;;;;;;;4991448;28;20206;-68
2022/06/30 07:13:15;;;;;;;18.60;15.70;;;;;;;;;;5000591;28;20269;-67
2022/06/30 07:15:40;;;;;;;19.67;16.17;;;;;;;;;;5009163;28;20245;-66
2022/06/30 07:18:06;;;;;;;18.85;16.02;;;;;;;;;;5001925;28;20186;-67
2022/06/30 07:20:31;;;;;;;19.38;16.98;;;;;;;;;;5001252;28;20262;-67
2022/06/30 07:22:56;;;;;;;21.05;16.50;;;;;;;;;;5009471;28;20194;-68
2022/06/30 07:25:22;;;;;;;19.45;15.98;;;;;;;;;;5010173;28;20170;-67
2022/06/30 07:27:47;;;;;;;26.00;16.38;;;;;;;;;;5009447;28;20647;-67
2022/06/30 07:30:13;;;;;;;18.27;16.38;;;;;;;;;;5005874;28;20246;-71
2022/06/30 07:32:38;;;;;;;17.30;15.50;;;;;;;;;;5007517;28;20202;-67
2022/06/30 07:35:06;;;;;;;19.27;17.23;;;;;;;;;;5003517;28;20683;-70
2022/06/30 07:37:35;;;;;;;18.35;16.40;;;;;;;;;;5009160;28;20191;-67
2022/06/30 07:40:00;;;;;;;20.05;17.02;;;;;;;;;;5009411;28;20312;-66
2022/06/30 07:42:26;;;;;;;21.45;18.10;;;;;;;;;;4998164;28;20301;-66
2022/06/30 07:44:51;;;;;;;21.88;17.38;;;;;;;;;;5005523;28;20282;-68
2022/06/30 07:47:16;;;;;;;21.95;16.67;;;;;;;;;;5004939;28;20254;-66
2022/06/30 07:49:42;;;;;;;20.00;17.30;;;;;;;;;;5009458;28;20203;-65
2022/06/30 07:52:07;;;;;;;18.83;16.83;;;;;;;;;;5006426;28;20549;-66
2022/06/30 07:54:33;;;;;;;22.50;16.35;;;;;;;;;;5009099;28;20189;-67
2022/06/30 07:56:58;;;;;;;21.10;16.55;;;;;;;;;;5007473;28;20190;-68
2022/06/30 07:59:24;;;;;;;19.55;17.10;;;;;;;;;;5009725;28;20186;-68
2022/06/30 08:01:49;;;;;;;20.02;17.35;;;;;;;;;;5008094;28;20187;-67
2022/06/30 08:04:17;;;;;;;21.23;15.55;;;;;;;;;;5006128;28;20191;-67
2022/06/30 08:06:42;;;;;;;16.67;13.43;;;;;;;;;;5009200;28;20194;-66
2022/06/30 08:09:08;;;;;;;18.90;14.95;;;;;;;;;;5010422;28;20183;-66
2022/06/30 08:11:33;;;;;;;19.00;14.38;;;;;;;;;;5007759;28;20261;-68
2022/06/30 08:13:59;;;;;;;16.90;14.20;;;;;;;;;;5009043;28;20231;-67
2022/06/30 08:16:25;;;;;;;17.80;13.93;;;;;;;;;;5008523;28;20627;-66
2022/06/30 08:18:50;;;;;;;14.45;12.30;;;;;;;;;;5009175;28;20183;-67
2022/06/30 08:21:16;;;;;;;16.40;11.50;;;;;;;;;;5010351;28;20612;-64
2022/06/30 08:23:41;;;;;;;12.60;10.90;;;;;;;;;;5009505;28;20190;-65
2022/06/30 08:26:06;;;;;;;14.63;11.52;;;;;;;;;;5009822;28;20187;-65
2022/06/30 08:28:33;;;;;;;15.65;10.85;;;;;;;;;;5008609;28;20292;-65
2022/06/30 08:31:00;;;;;;;17.10;11.73;;;;;;;;;;5006823;28;20581;-65
2022/06/30 08:33:25;;;;;;;16.85;11.80;;;;;;;;;;5009804;28;20190;-66
2022/06/30 08:35:50;;;;;;;12.75;11.27;;;;;;;;;;5009901;28;20205;-64
2022/06/30 08:38:16;;;;;;;19.80;10.73;;;;;;;;;;5008121;28;20175;-65
2022/06/30 08:43:29;;;;;;;15.43;11.18;;;;;;;;;;5008347;28;20586;-65
2022/06/30 08:45:54;;;;;;;23.45;12.60;;;;;;;;;;5008558;28;20225;-64
2022/06/30 08:48:19;;;;;;;13.57;9.20;;;;;;;;;;5007946;28;20190;-64
2022/06/30 08:50:47;;;;;;;13.25;9.93;;;;;;;;;;5009204;28;20198;-65
2022/06/30 08:53:16;;;;;;;13.80;10.50;;;;;;;;;;5007567;28;20183;-65
2022/06/30 08:55:42;;;;;;;13.82;10.35;;;;;;;;;;5009212;28;20194;-65
2022/06/30 08:58:08;;;;;;;13.05;11.35;;;;;;;;;;5007726;28;20183;-65
2022/06/30 09:00:36;;;;;;;16.17;11.52;;;;;;;;;;5008959;28;20194;-65
2022/06/30 09:03:02;;;;;;;11.05;9.38;;;;;;;;;;5009345;28;20190;-64
2022/06/30 09:05:28;;;;;;;13.55;10.30;;;;;;;;;;5006591;28;20185;-65
2022/06/30 09:07:53;;;;;;;14.45;9.77;;;;;;;;;;5007495;28;20273;-65
2022/06/30 09:10:19;;;;;;;13.85;11.05;;;;;;;;;;5008587;28;20610;-64
2022/06/30 09:12:57;;;;;;;11.07;9.27;;;;;;;;;;5006829;28;20191;-65
2022/06/30 09:15:22;;;;;;;14.02;10.20;;;;;;;;;;5007414;28;20195;-65
2022/06/30 09:17:47;;;;;;;11.60;10.18;;;;;;;;;;5005771;28;20563;-65
2022/06/30 09:20:14;;;;;;;12.70;9.90;;;;;;;;;;5007896;28;20539;-66
2022/06/30 09:22:40;;;;;;;10.32;8.65;;;;;;;;;;5008922;28;20183;-66
2022/06/30 09:25:15;;;;;;;9.60;8.60;;;;;;;;;;5006192;28;20237;-66
2022/06/30 09:27:43;;;;;;;15.02;9.70;;;;;;;;;;5003915;28;20646;-66
2022/06/30 09:30:19;;;;;;;11.45;10.25;;;;;;;;;;4305595;28;10000824;-64
2022/06/30 09:33:04;;;;;;;13.65;9.60;;;;;;;;;;5004967;28;20218;-63
2022/06/30 09:35:31;;;;;;;9.68;6.90;;;;;;;;;;5006189;28;20186;-64
2022/06/30 09:38:10;;;;;;;9.90;7.40;;;;;;;;;;5004302;28;20555;-64
2022/06/30 09:40:36;;;;;;;7.95;7.10;;;;;;;;;;5002555;28;20170;-63
2022/06/30 09:43:04;;;;;;;8.88;7.18;;;;;;;;;;5004980;28;20186;-64
2022/06/30 09:45:47;;;;;;;9.98;7.35;;;;;;;;;;5005871;28;20186;-66
2022/06/30 09:48:13;;;;;;;10.68;8.23;;;;;;;;;;5003052;28;20183;-66
2022/06/30 09:50:38;;;;;;;13.27;8.85;;;;;;;;;;5004597;28;20257;-65
2022/06/30 09:53:07;;;;;;;5.85;4.50;;;;;;;;;;5002813;28;20199;-66
2022/06/30 09:55:47;;;;;;;6.47;3.22;;;;;;;;;;5005298;28;20202;-65
2022/06/30 09:58:15;;;;;;;4.00;2.95;;;;;;;;;;4993648;28;20754;-65
2022/06/30 10:00:49;;;;;;;3.65;2.85;;;;;;;;;;4999609;28;20193;-65
2022/06/30 10:03:18;;;;;;;3.80;3.03;;;;;;;;;;5001917;28;20209;-66
2022/06/30 10:05:48;;;;;;;5.53;3.22;;;;;;;;;;5003179;28;20201;-66
2022/06/30 10:08:15;;;;;;;4.40;3.30;;;;;;;;;;5000623;28;20195;-66
2022/06/30 10:10:41;;;;;;;3.00;2.70;;;;;;;;;;5003823;28;20818;-66
2022/06/30 10:13:13;;;;;;;5.00;2.65;;;;;;;;;;5002192;28;20572;-65
2022/06/30 10:15:39;;;;;;;7.53;2.70;;;;;;;;;;5003065;28;20167;-66
2022/06/30 10:18:07;;;;;;;5.63;2.50;;;;;;;;;;5003208;28;20212;-66
2022/06/30 10:20:38;;;;;;;3.40;2.40;;;;;;;;;;5005825;28;20182;-67
2022/06/30 10:23:08;;;;;;;4.63;2.17;;;;;;;;;;5003911;28;20241;-65
2022/06/30 10:25:34;;;;;;;10.35;3.47;;;;;;;;;;5006625;28;20198;-66
2022/06/30 10:28:00;;;;;;;3.30;2.72;;;;;;;;;;5006876;28;20183;-65
2022/06/30 10:30:35;;;;;;;4.53;2.67;;;;;;;;;;5007375;28;20586;-66
2022/06/30 10:33:13;;;;;;;3.92;2.20;;;;;;;;;;5006007;28;20493;-64
2022/06/30 10:35:45;;;;;;;2.55;2.17;;;;;;;;;;5005793;28;20175;-66
2022/06/30 10:38:23;;;;;;;5.90;2.47;;;;;;;;;;5003553;28;20615;-64
2022/06/30 10:41:11;;;;;;;7.20;2.50;;;;;;;;;;5003876;28;20171;-66
2022/06/30 10:44:05;;;;;;;6.07;2.10;;;;;;;;;;5005123;28;20209;-65
2022/06/30 10:46:56;;;;;;;6.20;2.67;;;;;;;;;;4983048;28;20234;-65
2022/06/30 10:49:24;;;;;;;4.65;2.85;;;;;;;;;;5007275;28;20775;-66
2022/06/30 10:51:54;;;;;;;4.32;3.08;;;;;;;;;;5001076;28;20202;-65
2022/06/30 10:54:33;;;;;;;4.32;3.50;;;;;;;;;;5007009;28;20178;-70
2022/06/30 10:57:01;;;;;;;5.05;3.72;;;;;;;;;;5005674;28;20190;-66
2022/06/30 10:59:27;;;;;;;5.82;3.50;;;;;;;;;;4995305;28;20171;-67
2022/06/30 11:02:10;;;;;;;5.85;4.45;;;;;;;;;;5003008;28;20191;-67
2022/06/30 11:04:47;;;;;;;7.80;4.00;;;;;;;;;;4998610;28;20635;-66
2022/06/30 11:07:21;;;;;;;7.80;4.13;;;;;;;;;;5001620;28;20182;-66
2022/06/30 11:09:54;;;;;;;7.47;4.47;;;;;;;;;;4998729;28;20290;-66
2022/06/30 11:12:23;;;;;;;6.45;4.40;;;;;;;;;;4990964;28;20210;-66
2022/06/30 11:14:51;;;;;;;6.63;5.03;;;;;;;;;;4994000;28;20182;-66
2022/06/30 11:17:19;;;;;;;6.05;4.47;;;;;;;;;;5033215;28;20246;-72
2022/06/30 11:19:46;;;;;;;5.90;4.82;;;;;;;;;;5000486;28;20308;-67
2022/06/30 11:22:18;;;;;;;7.22;4.95;;;;;;;;;;5006117;28;20175;-67
2022/06/30 11:24:48;;;;;;;6.63;4.40;;;;;;;;;;5003406;28;20498;-66
2022/06/30 11:27:19;;;;;;;8.40;4.50;;;;;;;;;;5006325;28;20392;-66
2022/06/30 11:29:45;;;;;;;6.22;5.32;;;;;;;;;;5003603;28;20223;-70
2022/06/30 11:32:11;;;;;;;9.10;4.63;;;;;;;;;;5002135;28;20222;-68
2022/06/30 11:34:38;;;;;;;10.27;4.68;;;;;;;;;;5004792;28;20321;-71
2022/06/30 11:37:04;;;;;;;5.05;4.55;;;;;;;;;;4996012;28;20175;-67
2022/06/30 11:39:29;;;;;;;7.00;4.55;;;;;;;;;;5005779;28;20191;-70
2022/06/30 11:41:55;;;;;;;7.55;4.95;;;;;;;;;;5004290;28;20548;-70
2022/06/30 11:44:29;;;;;;;5.47;4.47;;;;;;;;;;5006883;28;20195;-71
2022/06/30 11:46:57;;;;;;;5.95;4.70;;;;;;;;;;5002146;28;20193;-69
2022/06/30 11:49:37;;;;;;;9.02;4.70;;;;;;;;;;5007439;28;20190;-69
2022/06/30 11:52:15;;;;;;;5.03;4.53;;;;;;;;;;5007218;28;20272;-69
2022/06/30 11:54:43;;;;;;;7.45;4.70;;;;;;;;;;4998649;28;20468;-71
2022/06/30 11:57:08;;;;;;;7.18;4.57;;;;;;;;;;5013173;28;20230;-69
2022/06/30 11:59:34;;;;;;;5.82;4.30;;;;;;;;;;5002103;28;20209;-70
2022/06/30 12:02:07;;;;;;;4.82;3.80;;;;;;;;;;5010411;28;20170;-69
2022/06/30 12:04:37;;;;;;;6.32;4.07;;;;;;;;;;5004444;28;20618;-71
2022/06/30 12:07:03;;;;;;;6.10;4.75;;;;;;;;;;5004421;28;20182;-67
2022/06/30 12:09:29;;;;;;;8.43;4.35;;;;;;;;;;4997630;28;20191;-67
2022/06/30 12:11:57;;;;;;;5.43;4.30;;;;;;;;;;5009675;28;20204;-68
2022/06/30 12:14:22;;;;;;;4.35;3.95;;;;;;;;;;4996867;28;20281;-66
2022/06/30 12:16:54;;;;;;;8.73;4.70;;;;;;;;;;5010127;28;20263;-66
2022/06/30 12:19:20;;;;;;;5.38;4.85;;;;;;;;;;5009208;28;20229;-68
2022/06/30 12:21:46;;;;;;;4.88;3.97;;;;;;;;;;5004226;28;20198;-69
2022/06/30 12:24:12;;;;;;;9.40;5.22;;;;;;;;;;5010681;28;20193;-68
2022/06/30 12:26:37;;;;;;;6.13;4.82;;;;;;;;;;5005842;28;20546;-69
2022/06/30 12:29:12;;;;;;;6.57;5.15;;;;;;;;;;4996236;28;20227;-68
2022/06/30 12:31:38;;;;;;;9.30;5.43;;;;;;;;;;5007971;28;20646;-67
2022/06/30 12:34:03;;;;;;;6.85;6.18;;;;;;;;;;5010613;28;20186;-69
2022/06/30 12:36:30;;;;;;;10.48;5.90;;;;;;;;;;5009337;28;20210;-68
2022/06/30 12:38:57;;;;;;;12.82;10.10;;;;;;;;;;5004283;28;20656;-67
2022/06/30 12:41:23;;;;;;;16.27;11.70;;;;;;;;;;5007334;28;20324;-68
2022/06/30 12:43:50;;;;;;;15.93;11.15;;;;;;;;;;5005185;28;20583;-67
2022/06/30 12:46:19;;;;;;;13.32;10.68;;;;;;;;;;5005676;28;20175;-70
2022/06/30 12:48:48;;;;;;;15.82;11.02;;;;;;;;;;5006843;28;20192;-68
2022/06/30 12:51:16;;;;;;;15.65;10.32;;;;;;;;;;5009810;28;20207;-68
2022/06/30 12:53:45;;;;;;;14.18;11.02;;;;;;;;;;5008386;28;20577;-69
2022/06/30 12:56:21;;;;;;;15.20;11.05;;;;;;;;;;5009255;28;20270;-72
2022/06/30 12:59:01;;;;;;;13.20;8.77;;;;;;;;;;5002090;28;20175;-69
2022/06/30 13:01:31;;;;;;;14.57;10.38;;;;;;;;;;5009060;28;20186;-70
2022/06/30 13:04:00;;;;;;;18.77;10.15;;;;;;;;;;5005957;28;20625;-72
2022/06/30 13:06:28;;;;;;;14.90;10.45;;;;;;;;;;4998290;28;20209;-69
2022/06/30 13:08:54;;;;;;;13.98;10.68;;;;;;;;;;5009092;28;20225;-70
2022/06/30 13:11:27;;;;;;;13.82;10.65;;;;;;;;;;4996102;28;20237;-73
2022/06/30 13:13:55;;;;;;;11.65;9.43;;;;;;;;;;5009491;28;20269;-73
2022/06/30 13:16:20;;;;;;;9.93;8.38;;;;;;;;;;4996164;28;20183;-66
2022/06/30 13:18:48;;;;;;;15.18;8.88;;;;;;;;;;5007601;28;20256;-72
2022/06/30 13:21:13;;;;;;;10.23;7.57;;;;;;;;;;5006794;28;20186;-68
2022/06/30 13:23:39;;;;;;;13.65;7.30;;;;;;;;;;5007442;28;20183;-69
2022/06/30 13:26:04;;;;;;;14.60;9.18;;;;;;;;;;5006920;28;20253;-73
2022/06/30 13:28:30;;;;;;;10.05;6.93;;;;;;;;;;5006829;28;20551;-72
2022/06/30 13:30:55;;;;;;;13.82;7.75;;;;;;;;;;5008039;28;20210;-72
2022/06/30 13:33:21;;;;;;;12.10;7.53;;;;;;;;;;5006506;28;20296;-71
2022/06/30 13:35:46;;;;;;;9.80;6.53;;;;;;;;;;5007406;28;20197;-72
2022/06/30 13:38:11;;;;;;;12.02;6.95;;;;;;;;;;5003209;28;20212;-70
2022/06/30 13:40:37;;;;;;;8.02;5.72;;;;;;;;;;5006467;28;20285;-70
2022/06/30 13:43:03;;;;;;;8.88;6.32;;;;;;;;;;5009614;28;20657;-72
2022/06/30 13:45:29;;;;;;;10.55;6.50;;;;;;;;;;5008381;28;20244;-69
2022/06/30 13:47:54;;;;;;;11.98;6.10;;;;;;;;;;5008596;28;20269;-69
2022/06/30 13:50:20;;;;;;;10.88;7.13;;;;;;;;;;5003488;28;20242;-71
2022/06/30 13:52:45;;;;;;;9.98;5.80;;;;;;;;;;5006560;28;20290;-72
2022/06/30 13:55:10;;;;;;;7.93;5.28;;;;;;;;;;5006077;28;20473;-70
2022/06/30 13:57:36;;;;;;;7.85;5.30;;;;;;;;;;5005621;28;20440;-72
2022/06/30 14:00:04;;;;;;;7.63;4.82;;;;;;;;;;5007208;28;20226;-68
2022/06/30 14:02:29;;;;;;;8.65;4.72;;;;;;;;;;5007401;28;20178;-72
2022/06/30 14:04:54;;;;;;;5.35;4.55;;;;;;;;;;5005616;28;20189;-73
2022/06/30 14:07:20;;;;;;;8.35;4.40;;;;;;;;;;5005295;28;20244;-70
2022/06/30 14:09:45;;;;;;;7.00;5.22;;;;;;;;;;5005729;28;20284;-74
2022/06/30 14:12:11;;;;;;;5.05;4.22;;;;;;;;;;5003074;28;20915;-71
2022/06/30 14:14:37;;;;;;;13.18;5.00;;;;;;;;;;5003637;28;20265;-70
2022/06/30 14:17:03;;;;;;;10.13;5.18;;;;;;;;;;5006125;28;20266;-73
2022/06/30 14:19:28;;;;;;;9.32;5.40;;;;;;;;;;5003342;28;20183;-73
2022/06/30 14:21:54;;;;;;;10.90;5.97;;;;;;;;;;5005302;28;20262;-73
2022/06/30 14:24:20;;;;;;;8.75;5.05;;;;;;;;;;4992112;28;20183;-71
2022/06/30 14:26:45;;;;;;;7.85;5.00;;;;;;;;;;5006443;28;20257;-70
2022/06/30 14:29:12;;;;;;;8.48;5.10;;;;;;;;;;5004988;28;20267;-71
2022/06/30 14:31:38;;;;;;;5.60;3.83;;;;;;;;;;5006107;28;20264;-70
2022/06/30 14:34:03;;;;;;;8.88;6.45;;;;;;;;;;5002040;28;20195;-73
2022/06/30 14:36:29;;;;;;;10.80;6.65;;;;;;;;;;5003753;28;20202;-73
2022/06/30 14:38:54;;;;;;;8.07;5.90;;;;;;;;;;5004984;28;20646;-73
2022/06/30 14:44:03;;;;;;;9.38;6.22;;;;;;;;;;5004815;28;20559;-73
2022/06/30 14:46:29;;;;;;;8.55;5.05;;;;;;;;;;5006537;28;20206;-70